createdAt,value
2018-03-08T05:00:44.248Z,994.61
2018-03-08T05:01:09.756Z,994.57
2018-03-08T05:01:35.294Z,994.61
2018-03-08T05:02:50.065Z,994.59
2018-03-08T05:03:15.643Z,994.62
2018-03-08T05:03:41.033Z,994.66
2018-03-08T05:04:06.481Z,994.61
2018-03-08T05:04:31.963Z,994.6
2018-03-08T05:04:57.425Z,994.67
2018-03-08T05:05:22.955Z,994.68
2018-03-08T05:05:48.479Z,994.67
2018-03-08T05:06:13.983Z,994.71
2018-03-08T05:06:39.409Z,994.67
2018-03-08T05:07:04.922Z,994.68
2018-03-08T05:07:30.354Z,994.72
2018-03-08T05:07:55.782Z,994.72
2018-03-08T05:08:21.276Z,994.69
2018-03-08T05:08:46.734Z,994.74
2018-03-08T05:09:12.250Z,994.75
2018-03-08T05:09:37.721Z,994.72
2018-03-08T05:10:03.255Z,994.75
2018-03-08T05:10:28.627Z,994.78
2018-03-08T05:10:54.129Z,994.78
2018-03-08T05:11:19.611Z,994.75
2018-03-08T05:11:45.052Z,994.77
2018-03-08T05:12:10.566Z,994.79
2018-03-08T05:12:35.968Z,994.71
2018-03-08T05:13:01.657Z,994.75
2018-03-08T05:13:27.148Z,994.79
2018-03-08T05:13:52.670Z,994.74
2018-03-08T05:14:18.153Z,994.79
2018-03-08T05:14:43.679Z,994.81
2018-03-08T05:15:09.176Z,994.79
2018-03-08T05:15:34.645Z,994.78
2018-03-08T05:16:00.125Z,994.75
2018-03-08T05:17:13.913Z,994.71
2018-03-08T05:17:39.413Z,994.74
2018-03-08T05:18:04.886Z,994.73
2018-03-08T05:18:30.365Z,994.7
2018-03-08T05:18:55.843Z,994.72
2018-03-08T05:19:21.374Z,994.72
2018-03-08T05:19:46.856Z,994.7
2018-03-08T05:20:12.408Z,994.71
2018-03-08T05:20:37.923Z,994.73
2018-03-08T05:21:03.386Z,994.67
2018-03-08T05:21:28.858Z,994.72
2018-03-08T05:21:54.370Z,994.68
2018-03-08T05:22:19.857Z,994.73
2018-03-08T05:22:45.336Z,994.76
2018-03-08T05:23:10.831Z,994.71
2018-03-08T05:23:36.328Z,994.74
2018-03-08T05:24:01.809Z,994.73
2018-03-08T05:24:27.324Z,994.68
2018-03-08T05:24:52.827Z,994.69
2018-03-08T05:25:18.335Z,994.72
2018-03-08T05:25:43.818Z,994.68
2018-03-08T05:26:09.311Z,994.73
2018-03-08T05:26:34.838Z,994.69
2018-03-08T05:27:00.402Z,994.72
2018-03-08T05:27:25.863Z,994.71
2018-03-08T05:27:51.459Z,994.71
2018-03-08T05:28:16.841Z,994.69
2018-03-08T05:28:42.437Z,994.69
2018-03-08T05:29:07.865Z,994.71
2018-03-08T05:29:33.382Z,994.67
2018-03-08T05:29:58.870Z,994.7
2018-03-08T05:30:24.353Z,994.72
2018-03-08T05:30:49.853Z,994.73
2018-03-08T05:31:15.356Z,994.76
2018-03-08T05:31:40.857Z,994.73
2018-03-08T05:32:06.371Z,994.69
2018-03-08T05:32:31.924Z,994.73
2018-03-08T05:32:57.569Z,994.67
2018-03-08T05:33:23.091Z,994.79
2018-03-08T05:33:48.669Z,994.71
2018-03-08T05:34:14.119Z,994.72
2018-03-08T05:34:39.679Z,994.68
2018-03-08T05:35:05.208Z,994.73
2018-03-08T05:35:30.652Z,994.71
2018-03-08T05:35:56.157Z,994.74
2018-03-08T05:36:21.555Z,994.73
2018-03-08T05:36:47.178Z,994.72
2018-03-08T05:37:12.625Z,994.77
2018-03-08T05:37:38.174Z,994.69
2018-03-08T05:38:03.565Z,994.69
2018-03-08T05:38:29.089Z,994.76
2018-03-08T05:38:54.587Z,994.73
2018-03-08T05:39:20.065Z,994.74
2018-03-08T05:39:45.493Z,994.72
2018-03-08T05:40:11.008Z,994.77
2018-03-08T05:40:36.458Z,994.74
2018-03-08T05:41:01.998Z,994.74
2018-03-08T05:41:27.422Z,994.72
2018-03-08T05:41:52.972Z,994.76
2018-03-08T05:42:18.541Z,994.78
2018-03-08T05:42:44.072Z,994.75
2018-03-08T05:43:09.568Z,994.76
2018-03-08T05:43:35.027Z,994.78
2018-03-08T05:44:00.486Z,994.8
2018-03-08T05:44:25.947Z,994.73
2018-03-08T05:44:51.470Z,994.75
2018-03-08T05:45:16.981Z,994.74
2018-03-08T05:45:42.539Z,994.75
2018-03-08T05:46:08.012Z,994.77
2018-03-08T05:46:33.573Z,994.81
2018-03-08T05:46:59.086Z,994.75
2018-03-08T05:47:24.531Z,994.81
2018-03-08T05:47:49.973Z,994.8
2018-03-08T05:48:15.500Z,994.82
2018-03-08T05:48:41.038Z,994.81
2018-03-08T05:49:06.495Z,994.81
2018-03-08T05:49:31.951Z,994.82
2018-03-08T05:49:57.477Z,994.81
2018-03-08T05:50:22.890Z,994.84
2018-03-08T05:50:48.463Z,994.86
2018-03-08T05:51:13.891Z,994.82
2018-03-08T05:51:39.403Z,994.82
2018-03-08T05:52:04.876Z,994.84
2018-03-08T05:52:30.301Z,994.84
2018-03-08T05:52:55.760Z,994.86
2018-03-08T05:53:21.260Z,994.84
2018-03-08T05:53:46.802Z,994.89
2018-03-08T05:54:12.254Z,994.92
2018-03-08T05:54:37.781Z,994.91
2018-03-08T05:55:03.273Z,994.9
2018-03-08T05:55:28.811Z,994.9
2018-03-08T05:55:54.661Z,994.94
2018-03-08T05:56:20.158Z,994.91
2018-03-08T05:56:45.648Z,994.94
2018-03-08T05:57:11.130Z,994.97
2018-03-08T05:57:36.693Z,994.95
2018-03-08T05:58:02.122Z,994.96
2018-03-08T05:58:27.603Z,994.98
2018-03-08T05:58:53.098Z,994.93
2018-03-08T05:59:18.642Z,994.98
2018-03-08T05:59:44.090Z,994.92
2018-03-08T06:00:09.597Z,994.93
2018-03-08T06:00:35.041Z,994.94
2018-03-08T06:01:00.523Z,994.9
2018-03-08T06:01:25.979Z,994.96
2018-03-08T06:01:51.464Z,994.95
2018-03-08T06:02:16.940Z,994.96
2018-03-08T06:02:42.397Z,994.96
2018-03-08T06:03:07.889Z,994.99
2018-03-08T06:03:33.398Z,995.02
2018-03-08T06:03:58.866Z,995.05
2018-03-08T06:04:24.295Z,995.09
2018-03-08T06:04:49.806Z,995.06
2018-03-08T06:05:15.315Z,995
2018-03-08T06:05:40.793Z,995.07
2018-03-08T06:06:06.269Z,995.04
2018-03-08T06:06:31.677Z,995.08
2018-03-08T06:06:57.164Z,995.1
2018-03-08T06:07:22.700Z,995.14
2018-03-08T06:07:48.132Z,995.13
2018-03-08T06:08:13.581Z,995.13
2018-03-08T06:08:39.098Z,995.16
2018-03-08T06:09:04.562Z,995.2
2018-03-08T06:09:30.062Z,995.16
2018-03-08T06:09:55.495Z,995.16
2018-03-08T06:10:20.998Z,995.19
2018-03-08T06:10:46.491Z,995.16
2018-03-08T06:11:11.926Z,995.17
2018-03-08T06:11:37.399Z,995.17
2018-03-08T06:12:02.887Z,995.19
2018-03-08T06:12:28.335Z,995.19
2018-03-08T06:12:53.809Z,995.18
2018-03-08T06:13:19.281Z,995.19
2018-03-08T06:13:44.809Z,995.2
2018-03-08T06:14:10.227Z,995.18
2018-03-08T06:14:35.706Z,995.2
2018-03-08T06:15:01.167Z,995.18
2018-03-08T06:16:21.104Z,995.21
2018-03-08T06:16:46.584Z,995.22
2018-03-08T06:17:12.057Z,995.24
2018-03-08T06:17:37.545Z,995.21
2018-03-08T06:18:03.058Z,995.22
2018-03-08T06:18:28.512Z,995.26
2018-03-08T06:18:54.014Z,995.29
2018-03-08T06:19:19.443Z,995.26
2018-03-08T06:19:44.940Z,995.26
2018-03-08T06:20:10.409Z,995.28
2018-03-08T06:20:35.869Z,995.26
2018-03-08T06:21:01.352Z,995.25
2018-03-08T06:21:26.832Z,995.26
2018-03-08T06:21:52.323Z,995.25
2018-03-08T06:22:17.769Z,995.29
2018-03-08T06:22:43.265Z,995.27
2018-03-08T06:23:08.724Z,995.31
2018-03-08T06:23:34.194Z,995.27
2018-03-08T06:23:59.673Z,995.26
2018-03-08T06:24:25.142Z,995.22
2018-03-08T06:24:50.616Z,995.24
2018-03-08T06:25:16.076Z,995.25
2018-03-08T06:25:41.528Z,995.26
2018-03-08T06:26:06.979Z,995.25
2018-03-08T06:26:32.435Z,995.21
2018-03-08T06:26:57.898Z,995.3
2018-03-08T06:27:23.341Z,995.3
2018-03-08T06:27:48.826Z,995.32
2018-03-08T06:28:14.283Z,995.32
2018-03-08T06:28:39.801Z,995.34
2018-03-08T06:29:05.293Z,995.32
2018-03-08T06:29:30.763Z,995.34
2018-03-08T06:29:56.209Z,995.34
2018-03-08T06:30:21.725Z,995.33
2018-03-08T06:30:47.137Z,995.32
2018-03-08T06:31:12.630Z,995.37
2018-03-08T06:31:38.080Z,995.37
2018-03-08T06:32:03.553Z,995.39
2018-03-08T06:32:29.037Z,995.33
2018-03-08T06:32:54.605Z,995.35
2018-03-08T06:33:20.053Z,995.36
2018-03-08T06:33:45.509Z,995.35
2018-03-08T06:34:10.968Z,995.36
2018-03-08T06:34:36.436Z,995.4
2018-03-08T06:35:01.935Z,995.35
2018-03-08T06:35:27.425Z,995.34
2018-03-08T06:35:52.976Z,995.36
2018-03-08T06:36:18.440Z,995.4
2018-03-08T06:36:43.941Z,995.39
2018-03-08T06:37:09.386Z,995.39
2018-03-08T06:37:34.862Z,995.4
2018-03-08T06:38:00.356Z,995.35
2018-03-08T06:38:25.874Z,995.37
2018-03-08T06:38:51.350Z,995.37
2018-03-08T06:39:16.835Z,995.34
2018-03-08T06:39:42.312Z,995.35
2018-03-08T06:40:07.776Z,995.38
2018-03-08T06:40:33.232Z,995.39
2018-03-08T06:40:58.700Z,995.44
2018-03-08T06:41:24.172Z,995.37
2018-03-08T06:41:49.649Z,995.39
2018-03-08T06:42:15.110Z,995.37
2018-03-08T06:42:40.574Z,995.35
2018-03-08T06:43:06.056Z,995.35
2018-03-08T06:43:31.531Z,995.32
2018-03-08T06:43:57.029Z,995.29
2018-03-08T06:44:22.487Z,995.31
2018-03-08T06:44:47.973Z,995.31
2018-03-08T06:45:13.468Z,995.31
2018-03-08T06:45:38.980Z,995.28
2018-03-08T06:46:04.529Z,995.32
2018-03-08T06:46:30.013Z,995.33
2018-03-08T06:46:55.519Z,995.31
2018-03-08T06:47:20.955Z,995.3
2018-03-08T06:47:46.458Z,995.28
2018-03-08T06:48:11.922Z,995.3
2018-03-08T06:48:37.395Z,995.28
2018-03-08T06:49:02.858Z,995.25
2018-03-08T06:49:28.339Z,995.3
2018-03-08T06:49:53.834Z,995.3
2018-03-08T06:50:19.307Z,995.26
2018-03-08T06:50:44.750Z,995.3
2018-03-08T06:51:10.310Z,995.31
2018-03-08T06:51:35.729Z,995.25
2018-03-08T06:52:01.280Z,995.29
2018-03-08T06:52:26.718Z,995.25
2018-03-08T06:52:52.249Z,995.27
2018-03-08T06:53:17.690Z,995.26
2018-03-08T06:53:43.143Z,995.32
2018-03-08T06:54:08.629Z,995.33
2018-03-08T06:54:34.118Z,995.31
2018-03-08T06:54:59.623Z,995.3
2018-03-08T06:55:25.160Z,995.32
2018-03-08T06:55:50.603Z,995.34
2018-03-08T06:56:16.060Z,995.37
2018-03-08T06:56:41.586Z,995.38
2018-03-08T06:57:07.134Z,995.39
2018-03-08T06:57:32.594Z,995.41
2018-03-08T06:57:58.057Z,995.38
2018-03-08T06:58:23.572Z,995.43
2018-03-08T06:58:49.098Z,995.43
2018-03-08T06:59:14.566Z,995.44
2018-03-08T06:59:40.037Z,995.41
2018-03-08T07:00:05.651Z,995.41
2018-03-08T07:00:31.333Z,995.41
2018-03-08T07:00:56.860Z,995.44
2018-03-08T07:01:22.351Z,995.41
2018-03-08T07:01:47.825Z,995.43
2018-03-08T07:02:13.351Z,995.42
2018-03-08T07:02:38.826Z,995.42
2018-03-08T07:03:04.302Z,995.38
2018-03-08T07:03:29.783Z,995.43
2018-03-08T07:03:55.274Z,995.48
2018-03-08T07:04:20.809Z,995.47
2018-03-08T07:04:46.300Z,995.48
2018-03-08T07:05:11.780Z,995.49
2018-03-08T07:05:37.310Z,995.47
2018-03-08T07:06:02.784Z,995.49
2018-03-08T07:06:28.279Z,995.46
2018-03-08T07:06:53.778Z,995.48
2018-03-08T07:07:19.239Z,995.49
2018-03-08T07:07:44.770Z,995.48
2018-03-08T07:08:10.297Z,995.46
2018-03-08T07:08:35.821Z,995.41
2018-03-08T07:09:01.333Z,995.41
2018-03-08T07:09:26.817Z,995.49
2018-03-08T07:09:52.290Z,995.46
2018-03-08T07:10:17.802Z,995.45
2018-03-08T07:10:43.284Z,995.47
2018-03-08T07:11:08.745Z,995.42
2018-03-08T07:12:12.365Z,995.49
2018-03-08T07:12:37.873Z,995.46
2018-03-08T07:13:03.352Z,995.47
2018-03-08T07:13:28.894Z,995.49
2018-03-08T07:13:54.489Z,995.5
2018-03-08T07:14:19.764Z,995.42
2018-03-08T07:14:45.220Z,995.48
2018-03-08T07:15:10.701Z,995.49
2018-03-08T07:15:36.198Z,995.47
2018-03-08T07:16:01.716Z,995.46
2018-03-08T07:16:27.238Z,995.48
2018-03-08T07:16:52.722Z,995.5
2018-03-08T07:17:18.223Z,995.47
2018-03-08T07:17:43.704Z,995.49
2018-03-08T07:18:09.189Z,995.5
2018-03-08T07:18:34.736Z,995.51
2018-03-08T07:19:00.205Z,995.47
2018-03-08T07:19:25.727Z,995.46
2018-03-08T07:19:51.190Z,995.45
2018-03-08T07:20:16.711Z,995.5
2018-03-08T07:20:42.207Z,995.48
2018-03-08T07:21:07.692Z,995.48
2018-03-08T07:21:33.162Z,995.47
2018-03-08T07:21:58.716Z,995.42
2018-03-08T07:22:24.172Z,995.41
2018-03-08T07:22:49.658Z,995.45
2018-03-08T07:23:15.190Z,995.5
2018-03-08T07:23:40.622Z,995.47
2018-03-08T07:24:06.109Z,995.5
2018-03-08T07:24:31.658Z,995.52
2018-03-08T07:24:57.177Z,995.52
2018-03-08T07:25:22.719Z,995.51
2018-03-08T07:25:48.125Z,995.5
2018-03-08T07:26:13.609Z,995.51
2018-03-08T07:26:39.076Z,995.54
2018-03-08T07:27:04.607Z,995.47
2018-03-08T07:27:30.084Z,995.5
2018-03-08T07:27:55.583Z,995.52
2018-03-08T07:28:21.158Z,995.48
2018-03-08T07:28:46.644Z,995.47
2018-03-08T07:29:12.124Z,995.5
2018-03-08T07:29:37.610Z,995.48
2018-03-08T07:30:03.116Z,995.47
2018-03-08T07:30:28.613Z,995.44
2018-03-08T07:30:54.120Z,995.5
2018-03-08T07:31:19.645Z,995.47
2018-03-08T07:31:45.135Z,995.47
2018-03-08T07:32:10.604Z,995.47
2018-03-08T07:32:36.100Z,995.51
2018-03-08T07:33:01.629Z,995.47
2018-03-08T07:34:06.021Z,995.46
2018-03-08T07:34:31.511Z,995.47
2018-03-08T07:34:57.038Z,995.48
2018-03-08T07:35:22.520Z,995.49
2018-03-08T07:35:48.009Z,995.52
2018-03-08T07:36:13.470Z,995.49
2018-03-08T07:36:38.949Z,995.46
2018-03-08T07:37:42.564Z,995.48
2018-03-08T07:38:08.053Z,995.47
2018-03-08T07:38:33.531Z,995.48
2018-03-08T07:38:59.038Z,995.42
2018-03-08T07:39:24.586Z,995.48
2018-03-08T07:39:50.789Z,995.53
2018-03-08T07:40:16.436Z,995.51
2018-03-08T07:40:41.921Z,995.46
2018-03-08T07:41:07.396Z,995.52
2018-03-08T07:41:32.849Z,995.49
2018-03-08T07:41:58.347Z,995.49
2018-03-08T07:42:23.800Z,995.49
2018-03-08T07:42:49.259Z,995.5
2018-03-08T07:43:14.712Z,995.52
2018-03-08T07:43:40.180Z,995.46
2018-03-08T07:44:05.634Z,995.51
2018-03-08T07:44:31.095Z,995.51
2018-03-08T07:44:56.604Z,995.48
2018-03-08T07:46:10.351Z,995.51
2018-03-08T07:46:35.845Z,995.48
2018-03-08T07:47:01.365Z,995.46
2018-03-08T07:47:26.777Z,995.47
2018-03-08T07:47:52.259Z,995.45
2018-03-08T07:48:17.737Z,995.44
2018-03-08T07:48:43.243Z,995.43
2018-03-08T07:49:08.749Z,995.44
2018-03-08T07:49:34.197Z,995.42
2018-03-08T07:49:59.676Z,995.42
2018-03-08T07:50:25.191Z,995.42
2018-03-08T07:50:50.620Z,995.4
2018-03-08T07:51:16.084Z,995.47
2018-03-08T07:51:41.568Z,995.42
2018-03-08T07:52:07.070Z,995.46
2018-03-08T07:52:32.519Z,995.43
2018-03-08T07:52:57.998Z,995.42
2018-03-08T07:53:23.480Z,995.39
2018-03-08T07:53:49.006Z,995.43
2018-03-08T07:54:14.465Z,995.34
2018-03-08T07:54:39.981Z,995.38
2018-03-08T07:55:05.460Z,995.39
2018-03-08T07:55:30.983Z,995.4
2018-03-08T07:55:56.464Z,995.38
2018-03-08T07:56:21.979Z,995.42
2018-03-08T07:56:47.461Z,995.4
2018-03-08T07:57:12.969Z,995.34
2018-03-08T07:57:38.438Z,995.39
2018-03-08T07:58:03.932Z,995.41
2018-03-08T07:58:29.445Z,995.4
2018-03-08T07:58:54.952Z,995.39
2018-03-08T07:59:20.435Z,995.38
2018-03-08T07:59:45.930Z,995.38
2018-03-08T08:00:11.428Z,995.41
2018-03-08T08:00:36.917Z,995.39
2018-03-08T08:01:02.443Z,995.37
2018-03-08T08:01:27.945Z,995.4
2018-03-08T08:01:53.440Z,995.34
2018-03-08T08:02:18.933Z,995.36
2018-03-08T08:02:44.421Z,995.37
2018-03-08T08:03:09.963Z,995.36
2018-03-08T08:03:35.429Z,995.37
2018-03-08T08:04:00.914Z,995.41
2018-03-08T08:04:26.424Z,995.35
2018-03-08T08:04:51.920Z,995.35
2018-03-08T08:05:17.412Z,995.38
2018-03-08T08:05:42.885Z,995.38
2018-03-08T08:06:08.393Z,995.39
2018-03-08T08:06:33.878Z,995.36
2018-03-08T08:06:59.395Z,995.35
2018-03-08T08:07:24.900Z,995.39
2018-03-08T08:07:50.369Z,995.35
2018-03-08T08:08:15.875Z,995.43
2018-03-08T08:08:41.413Z,995.37
2018-03-08T08:09:06.899Z,995.38
2018-03-08T08:09:32.399Z,995.31
2018-03-08T08:09:57.895Z,995.35
2018-03-08T08:10:23.403Z,995.31
2018-03-08T08:10:48.879Z,995.28
2018-03-08T08:11:14.412Z,995.31
2018-03-08T08:11:39.924Z,995.25
2018-03-08T08:12:05.393Z,995.29
2018-03-08T08:12:30.880Z,995.25
2018-03-08T08:12:56.361Z,995.31
2018-03-08T08:14:15.267Z,995.19
2018-03-08T08:14:40.783Z,995.25
2018-03-08T08:15:06.280Z,995.16
2018-03-08T08:15:31.759Z,995.21
2018-03-08T08:15:57.303Z,995.25
2018-03-08T08:16:22.762Z,995.19
2018-03-08T08:16:48.236Z,995.27
2018-03-08T08:17:13.714Z,995.17
2018-03-08T08:17:39.192Z,995.23
2018-03-08T08:18:04.677Z,995.2
2018-03-08T08:18:30.152Z,995.26
2018-03-08T08:18:55.626Z,995.25
2018-03-08T08:20:14.566Z,995.19
2018-03-08T08:20:40.063Z,995.21
2018-03-08T08:21:05.592Z,995.14
2018-03-08T08:21:31.028Z,995.2
2018-03-08T08:21:56.516Z,995.2
2018-03-08T08:22:22.024Z,995.2
2018-03-08T08:22:47.523Z,995.2
2018-03-08T08:23:13.019Z,995.16
2018-03-08T08:23:38.533Z,995.13
2018-03-08T08:24:04.046Z,995.17
2018-03-08T08:24:29.497Z,995.15
2018-03-08T08:24:55.000Z,995.19
2018-03-08T08:25:20.479Z,995.15
2018-03-08T08:25:46.006Z,995.11
2018-03-08T08:26:11.518Z,995.09
2018-03-08T08:26:37.019Z,995.13
2018-03-08T08:27:02.526Z,995.15
2018-03-08T08:27:28.069Z,995.15
2018-03-08T08:27:53.510Z,995.19
2018-03-08T08:28:19.022Z,995.18
2018-03-08T08:28:44.489Z,995.18
2018-03-08T08:29:09.989Z,995.11
2018-03-08T08:29:35.452Z,995.13
2018-03-08T08:30:00.944Z,995.24
2018-03-08T08:30:26.474Z,995.17
2018-03-08T08:30:51.968Z,995.26
2018-03-08T08:31:17.423Z,995.14
2018-03-08T08:31:42.925Z,995.2
2018-03-08T08:32:08.394Z,995.24
2018-03-08T08:32:33.889Z,995.18
2018-03-08T08:32:59.401Z,995.18
2018-03-08T08:33:24.873Z,995.18
2018-03-08T08:33:50.334Z,995.21
2018-03-08T08:34:15.850Z,995.19
2018-03-08T08:35:19.408Z,995.17
2018-03-08T08:35:44.912Z,995.18
2018-03-08T08:36:10.430Z,995.13
2018-03-08T08:36:35.922Z,995.21
2018-03-08T08:37:01.409Z,995.11
2018-03-08T08:37:26.908Z,995.15
2018-03-08T08:37:52.410Z,995.15
2018-03-08T08:38:17.916Z,995.2
2018-03-08T08:38:43.414Z,995.17
2018-03-08T08:39:08.937Z,995.15
2018-03-08T08:39:34.431Z,995.19
2018-03-08T08:39:59.933Z,995.19
2018-03-08T08:40:25.374Z,995.25
2018-03-08T08:40:50.892Z,995.2
2018-03-08T08:41:16.385Z,995.19
2018-03-08T08:41:41.878Z,995.15
2018-03-08T08:42:07.345Z,995.17
2018-03-08T08:42:32.852Z,995.25
2018-03-08T08:42:58.414Z,995.2
2018-03-08T08:43:23.910Z,995.2
2018-03-08T08:43:49.379Z,995.14
2018-03-08T08:44:14.871Z,995.14
2018-03-08T08:44:40.375Z,995.12
2018-03-08T08:45:05.886Z,995.17
2018-03-08T08:45:31.374Z,995.1
2018-03-08T08:45:56.861Z,995.22
2018-03-08T08:46:22.365Z,995.15
2018-03-08T08:46:47.892Z,995.11
2018-03-08T08:47:13.376Z,995.18
2018-03-08T08:47:38.838Z,995.17
2018-03-08T08:48:04.303Z,995.15
2018-03-08T08:48:29.804Z,995.1
2018-03-08T08:48:55.297Z,995.11
2018-03-08T08:49:20.797Z,995.1
2018-03-08T08:49:46.252Z,995.14
2018-03-08T08:50:11.731Z,995.07
2018-03-08T08:50:37.212Z,995.09
2018-03-08T08:51:02.688Z,995.1
2018-03-08T08:51:28.180Z,995.07
2018-03-08T08:51:53.647Z,995.01
2018-03-08T08:52:19.160Z,995.06
2018-03-08T08:52:44.673Z,995.05
2018-03-08T08:53:10.181Z,995.05
2018-03-08T08:53:35.695Z,995.02
2018-03-08T08:54:01.178Z,995.02
2018-03-08T08:54:26.659Z,995.03
2018-03-08T08:54:52.150Z,995.02
2018-03-08T08:55:17.622Z,995.03
2018-03-08T08:55:43.121Z,995.02
2018-03-08T08:56:08.635Z,995.05
2018-03-08T08:56:34.164Z,995.02
2018-03-08T08:56:59.684Z,995.03
2018-03-08T08:57:25.125Z,994.99
2018-03-08T08:57:50.560Z,994.95
2018-03-08T08:58:16.031Z,995.03
2018-03-08T08:58:41.522Z,995.09
2018-03-08T08:59:07.004Z,995.02
2018-03-08T08:59:32.521Z,995.01
2018-03-08T08:59:58.010Z,995.07
2018-03-08T09:00:23.473Z,995.04
2018-03-08T09:00:49.013Z,994.96
2018-03-08T09:01:14.515Z,994.96
2018-03-08T09:01:40.006Z,994.96
2018-03-08T09:02:05.480Z,994.98
2018-03-08T09:02:30.963Z,994.89
2018-03-08T09:02:56.512Z,994.98
2018-03-08T09:03:22.035Z,994.98
2018-03-08T09:03:47.507Z,994.97
2018-03-08T09:04:13.006Z,994.93
2018-03-08T09:04:38.491Z,994.93
2018-03-08T09:05:04.001Z,994.93
2018-03-08T09:05:29.505Z,994.94
2018-03-08T09:05:55.028Z,994.94
2018-03-08T09:06:20.503Z,994.91
2018-03-08T09:07:29.235Z,994.87
2018-03-08T09:07:54.714Z,994.88
2018-03-08T09:08:20.257Z,994.91
2018-03-08T09:08:45.763Z,994.88
2018-03-08T09:09:11.268Z,994.82
2018-03-08T09:09:36.804Z,994.81
2018-03-08T09:10:02.407Z,994.83
2018-03-08T09:10:27.889Z,994.85
2018-03-08T09:10:53.406Z,994.72
2018-03-08T09:11:18.899Z,994.83
2018-03-08T09:11:44.392Z,994.83
2018-03-08T09:12:09.897Z,994.81
2018-03-08T09:12:35.402Z,994.93
2018-03-08T09:13:00.937Z,994.86
2018-03-08T09:13:26.367Z,994.85
2018-03-08T09:13:51.862Z,994.9
2018-03-08T09:14:17.355Z,994.86
2018-03-08T09:14:42.859Z,994.89
2018-03-08T09:15:08.358Z,994.94
2018-03-08T09:15:33.866Z,994.91
2018-03-08T09:16:32.772Z,994.89
2018-03-08T09:16:58.276Z,994.86
2018-03-08T09:17:23.758Z,994.89
2018-03-08T09:17:49.236Z,994.91
2018-03-08T09:18:14.697Z,994.91
2018-03-08T09:18:40.173Z,994.89
2018-03-08T09:19:05.658Z,994.93
2018-03-08T09:19:31.140Z,994.84
2018-03-08T09:19:56.897Z,994.84
2018-03-08T09:20:22.384Z,994.88
2018-03-08T09:21:31.056Z,994.84
2018-03-08T09:21:56.525Z,994.86
2018-03-08T09:22:22.014Z,994.83
2018-03-08T09:22:47.500Z,994.82
2018-03-08T09:23:12.995Z,994.78
2018-03-08T09:23:38.435Z,994.78
2018-03-08T09:24:03.963Z,994.66
2018-03-08T09:24:29.475Z,994.69
2018-03-08T09:24:54.918Z,994.66
2018-03-08T09:25:20.396Z,994.69
2018-03-08T09:25:45.931Z,994.71
2018-03-08T09:26:11.414Z,994.68
2018-03-08T09:26:36.910Z,994.65
2018-03-08T09:27:02.402Z,994.63
2018-03-08T09:27:27.931Z,994.73
2018-03-08T09:27:53.469Z,994.74
2018-03-08T09:28:18.903Z,994.68
2018-03-08T09:28:44.384Z,994.72
2018-03-08T09:29:09.885Z,994.67
2018-03-08T09:29:35.506Z,994.71
2018-03-08T09:30:00.897Z,994.67
2018-03-08T09:30:26.356Z,994.71
2018-03-08T09:30:51.860Z,994.63
2018-03-08T09:31:17.543Z,994.61
2018-03-08T09:31:42.904Z,994.6
2018-03-08T09:32:08.365Z,994.61
2018-03-08T09:32:33.859Z,994.59
2018-03-08T09:32:59.403Z,994.57
2018-03-08T09:33:24.857Z,994.56
2018-03-08T09:33:50.346Z,994.59
2018-03-08T09:34:15.845Z,994.59
2018-03-08T09:34:41.281Z,994.56
2018-03-08T09:35:06.759Z,994.56
2018-03-08T09:35:32.212Z,994.58
2018-03-08T09:35:57.697Z,994.5
2018-03-08T09:36:23.150Z,994.53
2018-03-08T09:36:48.647Z,994.49
2018-03-08T09:37:14.113Z,994.52
2018-03-08T09:37:39.607Z,994.52
2018-03-08T09:38:05.071Z,994.56
2018-03-08T09:38:30.570Z,994.57
2018-03-08T09:38:56.064Z,994.51
2018-03-08T09:39:21.526Z,994.52
2018-03-08T09:39:47.012Z,994.56
2018-03-08T09:40:12.511Z,994.5
2018-03-08T09:40:37.955Z,994.56
2018-03-08T09:41:03.481Z,994.52
2018-03-08T09:41:28.999Z,994.54
2018-03-08T09:41:54.530Z,994.55
2018-03-08T09:42:20.007Z,994.55
2018-03-08T09:42:45.482Z,994.61
2018-03-08T09:43:10.964Z,994.57
2018-03-08T09:43:36.459Z,994.56
2018-03-08T09:44:01.978Z,994.58
2018-03-08T09:44:27.491Z,994.6
2018-03-08T09:44:53.000Z,994.59
2018-03-08T09:45:18.473Z,994.58
2018-03-08T09:45:43.967Z,994.62
2018-03-08T09:46:09.467Z,994.58
2018-03-08T09:46:34.950Z,994.53
2018-03-08T09:47:00.410Z,994.62
2018-03-08T09:47:25.962Z,994.47
2018-03-08T09:48:44.932Z,994.54
2018-03-08T09:49:10.450Z,994.53
2018-03-08T09:49:35.913Z,994.64
2018-03-08T09:50:01.429Z,994.61
2018-03-08T09:50:26.921Z,994.52
2018-03-08T09:50:52.368Z,994.5
2018-03-08T09:51:17.851Z,994.49
2018-03-08T09:51:43.348Z,994.52
2018-03-08T09:52:08.810Z,994.51
2018-03-08T09:52:34.345Z,994.53
2018-03-08T09:52:59.828Z,994.47
2018-03-08T09:53:25.340Z,994.38
2018-03-08T09:53:50.844Z,994.57
2018-03-08T09:54:16.340Z,994.45
2018-03-08T09:54:41.842Z,994.39
2018-03-08T09:55:07.311Z,994.44
2018-03-08T09:55:32.808Z,994.36
2018-03-08T09:55:58.293Z,994.41
2018-03-08T09:56:23.820Z,994.37
2018-03-08T09:56:49.316Z,994.35
2018-03-08T09:57:14.813Z,994.31
2018-03-08T09:57:40.314Z,994.44
2018-03-08T09:58:05.807Z,994.35
2018-03-08T09:58:31.321Z,994.35
2018-03-08T09:58:56.806Z,994.3
2018-03-08T09:59:22.298Z,994.32
2018-03-08T09:59:47.773Z,994.34
2018-03-08T10:00:13.248Z,994.37
2018-03-08T10:00:38.756Z,994.36
2018-03-08T10:01:04.239Z,994.35
2018-03-08T10:01:29.735Z,994.31
2018-03-08T10:01:55.212Z,994.45
2018-03-08T10:02:20.692Z,994.36
2018-03-08T10:02:46.252Z,994.36
2018-03-08T10:03:11.773Z,994.34
2018-03-08T10:03:37.277Z,994.39
2018-03-08T10:04:02.776Z,994.34
2018-03-08T10:04:28.238Z,994.28
2018-03-08T10:04:53.713Z,994.32
2018-03-08T10:05:19.216Z,994.28
2018-03-08T10:05:44.696Z,994.34
2018-03-08T10:06:10.161Z,994.22
2018-03-08T10:06:35.668Z,994.23
2018-03-08T10:07:01.166Z,994.27
2018-03-08T10:07:26.640Z,994.28
2018-03-08T10:07:52.144Z,994.3
2018-03-08T10:08:17.619Z,994.27
2018-03-08T10:08:43.127Z,994.29
2018-03-08T10:09:08.597Z,994.24
2018-03-08T10:09:34.063Z,994.27
2018-03-08T10:09:59.563Z,994.29
2018-03-08T10:10:25.067Z,994.19
2018-03-08T10:10:50.585Z,994.22
2018-03-08T10:11:16.070Z,994.24
2018-03-08T10:11:41.545Z,994.22
2018-03-08T10:12:07.032Z,994.32
2018-03-08T10:12:32.545Z,994.26
2018-03-08T10:12:58.028Z,994.28
2018-03-08T10:13:23.557Z,994.22
2018-03-08T10:13:49.169Z,994.28
2018-03-08T10:14:14.650Z,994.29
2018-03-08T10:14:40.170Z,994.2
2018-03-08T10:15:05.660Z,994.22
2018-03-08T10:15:31.159Z,994.21
2018-03-08T10:15:56.647Z,994.24
2018-03-08T10:16:22.110Z,994.19
2018-03-08T10:16:47.611Z,994.24
2018-03-08T10:17:13.081Z,994.28
2018-03-08T10:17:38.564Z,994.18
2018-03-08T10:18:04.094Z,994.18
2018-03-08T10:18:29.563Z,994.17
2018-03-08T10:18:55.051Z,994.2
2018-03-08T10:19:20.564Z,994.18
2018-03-08T10:19:46.060Z,994.21
2018-03-08T10:20:11.557Z,994.21
2018-03-08T10:20:37.094Z,994.18
2018-03-08T10:21:02.601Z,994.15
2018-03-08T10:21:44.407Z,994.16
2018-03-08T10:21:53.595Z,994.15
2018-03-08T10:22:19.082Z,994.12
2018-03-08T10:22:44.606Z,994.1
2018-03-08T10:23:10.066Z,994.14
2018-03-08T10:23:35.539Z,994.17
2018-03-08T10:24:01.051Z,994.11
2018-03-08T10:24:26.490Z,994.12
2018-03-08T10:24:51.968Z,994.14
2018-03-08T10:25:17.498Z,994.11
2018-03-08T10:25:43.024Z,994.19
2018-03-08T10:26:08.595Z,994.13
2018-03-08T10:26:34.043Z,994.21
2018-03-08T10:26:59.484Z,994.1
2018-03-08T10:27:24.972Z,994.16
2018-03-08T10:27:50.493Z,994.15
2018-03-08T10:28:16.012Z,994.14
2018-03-08T10:28:41.516Z,994.15
2018-03-08T10:29:07.018Z,994.11
2018-03-08T10:29:32.526Z,994.08
2018-03-08T10:29:57.983Z,994.04